Time;durP1;ratioP1;P1;durP2;ratioP2;P2;SDS_P1;SDS_P2;PMS_P1;PMS_P2;Temp;Humidity;BMP_temperature;BMP_pressure;BME280_temperature;BME280_humidity;BME280_pressure;Samples;Min_cycle;Max_cycle;Signal;HPM_P1;HPM_P2
2021/04/14 00:03:34;;;;;;;4.07;1.65;;;1.80;99.90;;;;;;12356999;28;20563;-42
2021/04/14 00:09:35;;;;;;;7.60;1.70;;;1.60;99.90;;;;;;12364348;28;20046;-42
2021/04/14 00:15:40;;;;;;;5.70;1.50;;;1.60;99.90;;;;;;12359602;28;20137;-43
2021/04/14 00:21:42;;;;;;;6.07;1.77;;;1.50;99.90;;;;;;12355583;28;20797;-43
2021/04/14 00:27:43;;;;;;;3.35;1.50;;;1.50;99.90;;;;;;12355358;28;20337;-43
2021/04/14 00:33:45;;;;;;;4.57;1.58;;;1.50;99.90;;;;;;12345683;28;20137;-44
2021/04/14 00:39:47;;;;;;;9.32;1.70;;;1.20;99.90;;;;;;12350008;28;20146;-42
2021/04/14 00:45:48;;;;;;;5.75;1.85;;;1.10;99.90;;;;;;12341830;28;20062;-42
2021/04/14 00:51:50;;;;;;;3.42;1.40;;;0.90;99.90;;;;;;12346187;28;20058;-43
2021/04/14 00:57:51;;;;;;;6.20;1.70;;;0.70;99.90;;;;;;12350089;28;20053;-42
2021/04/14 01:03:55;;;;;;;8.27;1.70;;;0.60;99.90;;;;;;12344560;28;20058;-43
2021/04/14 01:09:56;;;;;;;8.98;1.98;;;0.50;99.90;;;;;;12338693;28;20145;-43
2021/04/14 01:15:58;;;;;;;13.10;2.70;;;0.60;99.90;;;;;;12348097;28;20038;-42
2021/04/14 01:21:59;;;;;;;12.65;2.45;;;0.90;99.90;;;;;;12346794;28;20050;-42
2021/04/14 01:28:04;;;;;;;6.63;1.85;;;0.80;99.90;;;;;;12351854;28;20062;-43
2021/04/14 01:34:13;;;;;;;5.20;1.98;;;1.10;99.90;;;;;;12354010;28;20050;-42
2021/04/14 01:40:16;;;;;;;7.45;1.92;;;1.20;99.90;;;;;;12343544;28;20154;-42
2021/04/14 01:46:18;;;;;;;6.25;1.50;;;1.30;99.90;;;;;;12352184;28;20176;-43
2021/04/14 01:52:19;;;;;;;5.70;2.10;;;1.40;99.90;;;;;;12332360;28;20506;-44
2021/04/14 01:58:22;;;;;;;8.00;1.73;;;1.30;99.90;;;;;;12348953;28;20050;-43
2021/04/14 02:04:24;;;;;;;7.90;1.58;;;1.10;99.90;;;;;;12352336;28;20112;-42
2021/04/14 02:10:27;;;;;;;5.63;1.92;;;1.00;99.90;;;;;;12344013;28;20057;-42
2021/04/14 02:16:29;;;;;;;8.57;2.28;;;1.00;99.90;;;;;;12352460;28;20050;-42
2021/04/14 02:22:30;;;;;;;6.18;2.00;;;0.90;99.90;;;;;;12347038;28;20054;-43
2021/04/14 02:28:32;;;;;;;6.63;2.28;;;1.00;99.90;;;;;;12365138;28;20108;-44
2021/04/14 02:34:33;;;;;;;4.55;2.30;;;0.90;99.90;;;;;;12358353;28;20046;-42
2021/04/14 02:40:35;;;;;;;9.98;2.47;;;0.90;99.90;;;;;;12338859;28;20059;-42
2021/04/14 02:46:36;;;;;;;8.98;2.25;;;0.90;99.90;;;;;;12359979;28;20899;-43
2021/04/14 02:52:38;;;;;;;8.50;2.55;;;0.80;99.90;;;;;;12331529;28;20069;-42
2021/04/14 02:58:40;;;;;;;8.23;2.75;;;0.80;99.90;;;;;;12345895;28;20054;-42
2021/04/14 03:04:41;;;;;;;9.95;2.50;;;0.80;99.90;;;;;;12356003;28;20053;-44
2021/04/14 03:10:43;;;;;;;8.55;2.15;;;0.80;99.90;;;;;;12347930;28;20058;-42
2021/04/14 03:16:44;;;;;;;10.73;2.70;;;0.80;99.90;;;;;;12347864;28;20050;-42
2021/04/14 03:22:47;;;;;;;8.98;2.63;;;0.80;99.90;;;;;;12342448;28;20054;-42
2021/04/14 03:28:49;;;;;;;11.45;2.90;;;0.80;99.90;;;;;;12335021;28;20050;-43
2021/04/14 03:34:50;;;;;;;7.70;2.67;;;0.80;99.90;;;;;;12344615;28;20115;-42
2021/04/14 03:40:51;;;;;;;9.77;2.65;;;0.80;99.90;;;;;;12338077;28;20113;-42
2021/04/14 03:46:53;;;;;;;8.15;3.05;;;0.80;99.90;;;;;;12332532;28;20069;-43
2021/04/14 03:52:55;;;;;;;6.85;3.13;;;0.80;99.90;;;;;;12340801;28;20396;-43
2021/04/14 03:58:56;;;;;;;8.13;2.92;;;0.90;99.90;;;;;;12351562;28;20050;-42
2021/04/14 04:04:57;;;;;;;10.40;2.92;;;1.10;99.90;;;;;;12349696;28;20053;-43
2021/04/14 04:10:59;;;;;;;6.45;2.60;;;1.20;99.90;;;;;;12333525;28;20045;-44
2021/04/14 04:17:02;;;;;;;9.32;2.80;;;1.30;99.90;;;;;;12340702;28;20100;-42
2021/04/14 04:23:05;;;;;;;10.68;3.60;;;1.30;99.90;;;;;;12340602;28;20080;-43
2021/04/14 04:29:06;;;;;;;8.52;3.08;;;1.20;99.90;;;;;;12345502;28;20061;-44
2021/04/14 04:35:09;;;;;;;7.57;3.22;;;1.20;99.90;;;;;;12338429;28;20092;-42
2021/04/14 04:41:10;;;;;;;6.10;2.90;;;1.10;99.90;;;;;;12341698;28;20049;-42
2021/04/14 04:47:12;;;;;;;11.30;3.17;;;1.10;99.90;;;;;;12343873;28;20054;-42
2021/04/14 04:53:16;;;;;;;7.05;2.85;;;1.10;99.90;;;;;;12355094;28;20043;-42
2021/04/14 04:59:18;;;;;;;9.65;3.08;;;1.20;99.90;;;;;;12355859;28;20540;-42
2021/04/14 05:05:24;;;;;;;5.43;2.88;;;1.30;99.90;;;;;;12367868;28;20100;-42
2021/04/14 05:11:26;;;;;;;7.60;2.75;;;1.40;99.90;;;;;;12362215;28;20253;-44
2021/04/14 05:17:27;;;;;;;8.80;3.45;;;1.60;99.90;;;;;;12360371;28;20058;-42
2021/04/14 05:23:29;;;;;;;8.32;3.22;;;1.70;99.90;;;;;;12360460;28;20042;-42
2021/04/14 05:29:31;;;;;;;9.57;3.20;;;1.70;99.90;;;;;;12356955;28;20434;-42
2021/04/14 05:35:32;;;;;;;8.82;3.25;;;2.00;99.90;;;;;;12368105;28;20104;-43
2021/04/14 05:41:34;;;;;;;10.70;3.15;;;2.10;99.90;;;;;;12370010;28;20107;-43
2021/04/14 05:47:35;;;;;;;6.57;3.33;;;2.20;99.90;;;;;;12360688;28;20137;-43
2021/04/14 05:53:38;;;;;;;7.95;2.92;;;2.00;99.90;;;;;;12361011;28;20048;-42
2021/04/14 05:59:39;;;;;;;6.70;3.08;;;2.20;99.90;;;;;;12372477;28;20145;-42
2021/04/14 06:05:43;;;;;;;8.25;2.95;;;2.30;99.90;;;;;;12354399;28;20471;-42
2021/04/14 06:11:45;;;;;;;7.63;2.90;;;2.70;99.90;;;;;;12362756;28;20046;-43
2021/04/14 06:17:46;;;;;;;7.95;2.70;;;2.90;99.90;;;;;;12348464;28;20054;-44
2021/04/14 06:23:48;;;;;;;9.02;3.00;;;3.40;99.90;;;;;;12357968;28;20058;-43
2021/04/14 06:29:49;;;;;;;6.32;3.17;;;3.30;99.90;;;;;;12340345;28;20080;-43
2021/04/14 06:35:54;;;;;;;11.23;3.00;;;3.60;99.90;;;;;;12360905;28;20046;-43
2021/04/14 06:42:24;;;;;;;6.55;2.97;;;3.60;99.90;;;;;;12352742;28;20119;-42
2021/04/14 06:48:47;;;;;;;7.90;3.13;;;3.60;99.90;;;;;;12362889;28;20095;-42
2021/04/14 06:55:01;;;;;;;13.15;3.40;;;3.80;99.90;;;;;;12362127;28;20113;-43
2021/04/14 07:01:17;;;;;;;8.10;3.27;;;3.90;99.90;;;;;;12360414;28;20542;-42
2021/04/14 07:07:27;;;;;;;8.73;3.60;;;4.10;99.90;;;;;;12364232;28;20103;-44
2021/04/14 07:13:32;;;;;;;4.75;2.80;;;4.30;99.90;;;;;;12350836;28;20096;-42
2021/04/14 07:20:01;;;;;;;10.38;3.78;;;4.40;99.90;;;;;;12362289;28;20096;-42
2021/04/14 07:26:12;;;;;;;10.10;3.90;;;4.60;99.90;;;;;;12358863;28;20076;-42
2021/04/14 07:32:29;;;;;;;8.73;3.40;;;4.70;99.90;;;;;;12351330;28;20058;-44
2021/04/14 07:39:00;;;;;;;10.02;2.95;;;5.00;99.90;;;;;;12364576;28;20100;-42
2021/04/14 07:45:16;;;;;;;14.68;3.35;;;5.20;99.90;;;;;;12357800;28;20070;-44
2021/04/14 07:51:18;;;;;;;7.93;2.65;;;5.20;99.90;;;;;;12361282;28;20050;-45
2021/04/14 07:57:37;;;;;;;9.82;2.22;;;5.30;99.90;;;;;;12361306;28;20720;-43
2021/04/14 08:03:38;;;;;;;6.75;2.22;;;5.20;99.90;;;;;;12359005;28;20080;-44
2021/04/14 08:09:56;;;;;;;11.18;2.60;;;5.30;99.90;;;;;;12352047;28;20066;-43
2021/04/14 08:15:58;;;;;;;8.30;2.75;;;5.10;99.90;;;;;;12350876;28;20125;-43
2021/04/14 08:22:13;;;;;;;22.02;3.28;;;5.30;99.90;;;;;;12358468;28;20082;-42
2021/04/14 08:28:35;;;;;;;11.32;2.47;;;5.50;99.90;;;;;;12360061;28;20045;-43
2021/04/14 08:34:38;;;;;;;11.43;2.03;;;5.80;99.90;;;;;;12369031;28;20471;-43
2021/04/14 08:40:53;;;;;;;7.70;1.92;;;5.90;99.90;;;;;;12379439;28;20069;-43
2021/04/14 08:47:05;;;;;;;6.47;1.85;;;6.80;99.90;;;;;;12379917;28;20490;-43
2021/04/14 08:53:13;;;;;;;5.35;1.63;;;6.70;99.90;;;;;;12376099;28;20046;-43
2021/04/14 08:59:15;;;;;;;11.90;1.88;;;6.60;99.90;;;;;;12372584;28;20991;-43
2021/04/14 09:05:20;;;;;;;15.05;2.00;;;6.30;99.90;;;;;;12374424;28;20160;-43
2021/04/14 09:11:25;;;;;;;13.45;1.33;;;6.30;99.90;;;;;;12374526;28;20476;-44
2021/04/14 09:17:30;;;;;;;11.07;2.10;;;6.20;99.90;;;;;;12370353;28;20054;-43
2021/04/14 09:23:31;;;;;;;7.03;1.80;;;6.80;99.90;;;;;;12363855;28;21113;-43
2021/04/14 09:29:47;;;;;;;5.88;1.65;;;7.80;99.90;;;;;;12373182;28;20065;-45
2021/04/14 09:35:48;;;;;;;4.28;1.08;;;8.60;99.90;;;;;;12374031;28;20437;-44
2021/04/14 09:41:50;;;;;;;6.57;1.83;;;8.00;99.90;;;;;;12368228;28;20076;-43
2021/04/14 09:47:52;;;;;;;5.70;1.20;;;7.70;99.90;;;;;;12367988;28;20461;-43
2021/04/14 09:53:58;;;;;;;4.80;1.33;;;7.70;99.90;;;;;;12363878;28;20042;-44
2021/04/14 10:00:00;;;;;;;6.60;1.48;;;8.40;99.90;;;;;;12364698;28;20141;-44
2021/04/14 10:06:22;;;;;;;9.60;1.85;;;7.80;99.90;;;;;;12357040;28;20056;-44
2021/04/14 10:12:28;;;;;;;9.55;1.58;;;7.10;99.90;;;;;;12364109;28;20561;-45
2021/04/14 10:18:33;;;;;;;4.32;0.80;;;6.90;99.90;;;;;;12354877;28;20046;-44
2021/04/14 10:24:35;;;;;;;4.07;0.75;;;6.40;99.90;;;;;;12362477;28;20154;-45
2021/04/14 10:30:46;;;;;;;2.17;0.57;;;5.70;99.90;;;;;;12356586;28;20050;-42
2021/04/14 10:36:48;;;;;;;2.55;0.60;;;5.10;99.90;;;;;;12360311;28;20482;-43
2021/04/14 10:42:53;;;;;;;3.35;0.65;;;4.80;99.90;;;;;;12363703;28;20104;-43
2021/04/14 10:49:03;;;;;;;3.03;0.50;;;4.70;99.90;;;;;;12359179;28;20106;-45
2021/04/14 10:55:10;;;;;;;3.97;0.50;;;4.70;99.90;;;;;;12369525;28;20081;-45
2021/04/14 11:01:16;;;;;;;1.92;0.40;;;5.30;99.90;;;;;;12367444;28;20073;-43
2021/04/14 11:07:22;;;;;;;2.30;0.50;;;5.90;99.90;;;;;;12363914;28;20545;-44
2021/04/14 11:13:29;;;;;;;1.88;0.60;;;6.40;99.90;;;;;;12359654;28;20496;-44
2021/04/14 11:19:30;;;;;;;1.75;0.60;;;7.10;99.90;;;;;;12363472;28;20049;-43
2021/04/14 11:25:35;;;;;;;3.80;0.43;;;7.20;99.90;;;;;;12355457;28;20077;-44
2021/04/14 11:31:43;;;;;;;3.45;0.90;;;7.80;99.90;;;;;;12363209;28;20141;-43
2021/04/14 11:37:47;;;;;;;4.03;0.65;;;9.10;99.90;;;;;;12359906;28;20468;-43
2021/04/14 11:43:48;;;;;;;1.85;0.50;;;9.20;99.90;;;;;;12357774;28;20136;-43
2021/04/14 11:49:50;;;;;;;2.38;0.90;;;8.30;99.90;;;;;;12352384;28;20104;-45
2021/04/14 11:55:52;;;;;;;1.55;0.50;;;8.00;99.90;;;;;;12359251;28;20050;-43
2021/04/14 12:02:19;;;;;;;2.80;0.60;;;8.00;99.90;;;;;;12363021;28;20134;-44
2021/04/14 12:08:22;;;;;;;2.92;0.88;;;9.10;99.90;;;;;;12362800;28;20050;-43
2021/04/14 12:14:23;;;;;;;2.53;1.10;;;9.70;99.90;;;;;;12354736;28;20529;-43
2021/04/14 12:20:24;;;;;;;4.47;0.85;;;10.20;99.90;;;;;;12356211;28;20041;-44
2021/04/14 12:26:26;;;;;;;3.60;1.00;;;10.00;99.90;;;;;;12353460;28;20050;-43
2021/04/14 12:32:27;;;;;;;3.80;0.90;;;9.30;99.90;;;;;;12344566;28;20429;-43
2021/04/14 12:38:29;;;;;;;3.97;0.90;;;9.60;99.90;;;;;;12355675;28;20096;-43
2021/04/14 12:44:30;;;;;;;3.70;0.90;;;10.30;99.90;;;;;;12348874;28;20116;-43
2021/04/14 12:50:32;;;;;;;3.83;1.00;;;9.80;99.90;;;;;;12362520;28;20149;-43
2021/04/14 12:56:36;;;;;;;3.97;1.10;;;10.60;99.90;;;;;;12358614;28;20088;-43
2021/04/14 13:03:05;;;;;;;6.40;1.27;;;10.60;99.90;;;;;;12356822;28;21646;-43
2021/04/14 13:09:09;;;;;;;4.25;0.90;;;10.80;99.90;;;;;;12352830;28;20092;-44
2021/04/14 13:15:15;;;;;;;3.55;0.82;;;11.80;99.90;;;;;;12357741;28;20045;-44
2021/04/14 13:21:22;;;;;;;4.13;0.90;;;11.10;99.90;;;;;;12357886;28;20097;-43
2021/04/14 13:27:27;;;;;;;4.63;1.10;;;9.40;99.90;;;;;;12369482;28;20117;-44
2021/04/14 13:33:44;;;;;;;5.45;1.67;;;8.20;99.90;;;;;;12366546;28;20060;-44
2021/04/14 13:40:15;;;;;;;3.50;1.27;;;8.00;99.90;;;;;;12360510;28;20050;-43
2021/04/14 13:46:25;;;;;;;4.40;1.10;;;7.80;99.90;;;;;;12355739;28;20141;-43
2021/04/14 13:52:28;;;;;;;4.38;1.40;;;8.10;99.90;;;;;;12366782;28;20046;-44
2021/04/14 13:58:43;;;;;;;5.18;1.38;;;8.80;99.90;;;;;;12359582;28;20038;-44
2021/04/14 14:04:47;;;;;;;4.63;1.30;;;8.40;99.90;;;;;;12365949;28;20112;-44
2021/04/14 14:11:02;;;;;;;4.28;1.38;;;8.70;99.90;;;;;;12351798;28;20124;-42
2021/04/14 14:17:04;;;;;;;4.65;1.33;;;9.20;99.90;;;;;;12351136;28;20050;-42
2021/04/14 14:23:08;;;;;;;3.42;1.48;;;9.40;99.90;;;;;;12363296;28;20053;-43
2021/04/14 14:29:09;;;;;;;5.77;1.10;;;8.70;99.90;;;;;;12360024;28;20066;-43
2021/04/14 14:35:11;;;;;;;3.13;0.90;;;9.10;99.90;;;;;;12354988;28;20132;-43
2021/04/14 14:41:20;;;;;;;5.40;0.70;;;10.00;99.90;;;;;;12357299;28;20085;-43
2021/04/14 14:47:23;;;;;;;3.72;1.02;;;9.60;99.90;;;;;;12361334;28;20050;-46
2021/04/14 14:53:25;;;;;;;3.22;0.80;;;9.70;99.90;;;;;;12361099;28;20053;-43
2021/04/14 14:59:38;;;;;;;5.00;1.20;;;10.20;99.90;;;;;;12363517;28;20455;-42
2021/04/14 15:05:41;;;;;;;2.85;0.90;;;10.00;99.90;;;;;;12353865;28;20455;-43
2021/04/14 15:11:42;;;;;;;3.28;0.80;;;10.50;99.90;;;;;;12366127;28;20453;-45
2021/04/14 15:17:44;;;;;;;1.23;0.70;;;11.10;99.90;;;;;;12361690;28;20046;-43
2021/04/14 15:23:46;;;;;;;1.45;0.75;;;10.70;99.90;;;;;;12355797;28;20050;-43
2021/04/14 15:29:47;;;;;;;2.65;1.05;;;11.40;99.90;;;;;;12365183;28;20108;-43
2021/04/14 15:35:48;;;;;;;6.05;0.88;;;10.40;99.90;;;;;;12347935;28;20516;-43
2021/04/14 15:41:49;;;;;;;2.33;0.68;;;9.60;99.90;;;;;;12359453;28;20045;-43
2021/04/14 15:47:52;;;;;;;1.67;0.70;;;9.30;99.90;;;;;;12347759;28;20053;-43
2021/04/14 15:53:54;;;;;;;2.33;0.75;;;9.00;99.90;;;;;;12363279;28;20076;-43
2021/04/14 15:59:58;;;;;;;3.50;0.80;;;8.80;99.90;;;;;;12364506;28;20054;-44
2021/04/14 16:06:02;;;;;;;2.13;0.90;;;8.20;99.90;;;;;;12354848;28;20088;-42
2021/04/14 16:12:04;;;;;;;2.90;0.80;;;8.40;99.90;;;;;;12357600;28;20052;-43
2021/04/14 16:18:17;;;;;;;1.23;0.70;;;9.30;99.90;;;;;;12357986;28;20050;-44
2021/04/14 16:24:19;;;;;;;2.63;0.95;;;10.20;99.90;;;;;;12361605;28;20109;-43
2021/04/14 16:30:20;;;;;;;3.05;0.75;;;9.40;99.90;;;;;;12360506;28;20057;-43
2021/04/14 16:36:22;;;;;;;2.92;0.68;;;9.80;99.90;;;;;;12354679;28;20038;-44
2021/04/14 16:42:24;;;;;;;2.92;1.00;;;10.30;99.90;;;;;;12349938;28;20061;-43
2021/04/14 16:48:26;;;;;;;3.58;1.58;;;9.10;99.90;;;;;;12360213;28;20078;-44
2021/04/14 16:54:29;;;;;;;2.80;0.80;;;8.30;99.90;;;;;;12352923;28;20046;-44
2021/04/14 17:00:32;;;;;;;3.22;0.80;;;8.50;99.90;;;;;;12367062;28;20046;-42
2021/04/14 17:06:36;;;;;;;2.55;0.80;;;8.60;99.90;;;;;;12366682;28;20050;-42
2021/04/14 17:12:38;;;;;;;3.22;1.20;;;8.30;99.90;;;;;;12364464;28;20058;-43
2021/04/14 17:18:39;;;;;;;4.07;1.10;;;7.80;99.90;;;;;;12364906;28;20129;-43
2021/04/14 17:24:42;;;;;;;4.25;1.30;;;8.60;99.90;;;;;;12357643;28;20047;-43
2021/04/14 17:30:49;;;;;;;2.75;0.80;;;9.00;99.90;;;;;;12355694;28;20041;-43
2021/04/14 17:36:54;;;;;;;3.72;1.70;;;8.60;99.90;;;;;;12361330;28;20050;-43
2021/04/14 17:42:56;;;;;;;5.35;1.20;;;8.10;99.90;;;;;;12363905;28;20560;-42
2021/04/14 17:48:57;;;;;;;13.88;6.40;;;7.50;99.90;;;;;;12364353;28;20050;-43
2021/04/14 17:54:59;;;;;;;3.13;1.40;;;7.20;99.90;;;;;;12354683;28;20463;-44
2021/04/14 18:01:00;;;;;;;4.43;1.50;;;7.10;99.90;;;;;;12362417;28;20498;-42
2021/04/14 18:07:02;;;;;;;4.80;1.10;;;7.00;99.90;;;;;;12354302;28;20120;-42
2021/04/14 18:13:05;;;;;;;3.08;1.02;;;6.60;99.90;;;;;;12361038;28;20070;-42
2021/04/14 18:19:06;;;;;;;6.30;1.30;;;6.20;99.90;;;;;;12359808;28;20057;-44
2021/04/14 18:25:09;;;;;;;4.18;1.30;;;5.80;99.90;;;;;;12355015;28;20103;-42
2021/04/14 18:31:13;;;;;;;5.32;1.80;;;5.50;99.90;;;;;;12354894;28;20057;-42
2021/04/14 18:37:14;;;;;;;4.85;1.92;;;5.30;99.90;;;;;;12352799;28;20072;-42
2021/04/14 18:43:16;;;;;;;6.07;2.50;;;5.10;99.90;;;;;;12361172;28;20557;-43
2021/04/14 18:49:20;;;;;;;4.68;1.50;;;4.80;99.90;;;;;;12371772;28;20574;-43
2021/04/14 18:55:22;;;;;;;4.30;1.13;;;4.70;99.90;;;;;;12357679;28;20145;-43
2021/04/14 19:01:27;;;;;;;4.50;1.35;;;4.50;99.90;;;;;;12362361;28;20038;-43
2021/04/14 19:07:28;;;;;;;6.30;1.55;;;4.50;99.90;;;;;;12362416;28;20050;-42
2021/04/14 19:13:29;;;;;;;4.30;1.90;;;4.50;99.90;;;;;;12357434;28;20077;-43
2021/04/14 19:19:31;;;;;;;6.32;2.40;;;4.40;99.90;;;;;;12360792;28;20053;-42
2021/04/14 19:25:32;;;;;;;7.53;2.50;;;4.30;99.90;;;;;;12360789;28;21096;-43
2021/04/14 19:31:37;;;;;;;3.97;2.15;;;4.20;99.90;;;;;;12360667;28;20150;-43
2021/04/14 19:37:39;;;;;;;5.35;1.77;;;4.00;99.90;;;;;;12356403;28;20334;-44
2021/04/14 19:43:40;;;;;;;5.80;2.25;;;4.10;99.90;;;;;;12359618;28;20521;-42
2021/04/14 19:49:41;;;;;;;4.60;2.08;;;4.00;99.90;;;;;;12362810;28;20132;-42
2021/04/14 19:55:44;;;;;;;6.60;2.10;;;3.60;99.90;;;;;;12359762;28;20050;-43
2021/04/14 20:01:45;;;;;;;4.75;1.90;;;3.60;99.90;;;;;;12366391;28;20061;-42
2021/04/14 20:07:47;;;;;;;7.93;2.50;;;3.20;99.90;;;;;;12362851;28;20905;-43
2021/04/14 20:13:49;;;;;;;3.67;2.25;;;3.20;99.90;;;;;;12360909;28;20051;-42
2021/04/14 20:19:50;;;;;;;5.40;2.40;;;3.10;99.90;;;;;;12365459;28;20050;-43
2021/04/14 20:25:52;;;;;;;4.53;2.35;;;3.20;99.90;;;;;;12362084;28;20661;-44
2021/04/14 20:31:54;;;;;;;6.03;2.83;;;3.10;99.90;;;;;;12355672;28;20046;-42
2021/04/14 20:37:55;;;;;;;6.40;2.80;;;3.40;99.90;;;;;;12360127;28;20505;-43
2021/04/14 20:43:57;;;;;;;6.18;3.00;;;3.40;99.90;;;;;;12347614;28;20056;-42
2021/04/14 20:49:59;;;;;;;6.20;3.05;;;3.40;99.90;;;;;;12360794;28;20141;-43
2021/04/14 20:56:03;;;;;;;6.97;2.92;;;3.30;99.90;;;;;;12352702;28;20529;-42
2021/04/14 21:02:04;;;;;;;6.97;3.03;;;3.10;99.90;;;;;;12359523;28;20558;-42
2021/04/14 21:08:06;;;;;;;5.25;2.85;;;2.80;99.90;;;;;;12358335;28;20050;-42
2021/04/14 21:14:07;;;;;;;6.20;3.30;;;2.70;99.90;;;;;;12362599;28;20089;-42
2021/04/14 21:20:11;;;;;;;8.88;3.35;;;2.60;99.90;;;;;;12360511;28;20050;-43
2021/04/14 21:26:12;;;;;;;10.68;4.15;;;2.30;99.90;;;;;;12354148;28;20062;-42
2021/04/14 21:32:14;;;;;;;7.20;3.60;;;2.40;99.90;;;;;;12346665;28;20046;-43
2021/04/14 21:38:18;;;;;;;7.57;3.00;;;2.30;99.90;;;;;;12354075;28;20054;-44
2021/04/14 21:44:19;;;;;;;6.22;2.88;;;2.50;99.90;;;;;;12355028;28;20081;-42
2021/04/14 21:50:26;;;;;;;8.73;3.47;;;2.70;99.90;;;;;;12363974;28;20050;-42
2021/04/14 21:56:27;;;;;;;6.45;3.15;;;2.70;99.90;;;;;;12361845;28;20155;-42
2021/04/14 22:02:29;;;;;;;6.35;3.10;;;2.80;99.90;;;;;;12367589;28;20562;-42
2021/04/14 22:08:30;;;;;;;5.05;3.63;;;2.80;99.90;;;;;;12363641;28;20081;-43
2021/04/14 22:14:32;;;;;;;7.72;3.28;;;2.70;99.90;;;;;;12364827;28;20151;-43
2021/04/14 22:20:36;;;;;;;8.60;3.50;;;2.70;99.90;;;;;;12361687;28;20190;-42
2021/04/14 22:26:38;;;;;;;6.73;3.47;;;2.50;99.90;;;;;;12357891;28;20074;-44
2021/04/14 22:32:39;;;;;;;5.60;3.10;;;2.30;99.90;;;;;;12358963;28;20108;-42
2021/04/14 22:38:47;;;;;;;6.63;3.10;;;2.00;99.90;;;;;;12368723;28;20050;-42
2021/04/14 22:44:48;;;;;;;5.70;3.22;;;2.00;99.90;;;;;;12364282;28;20085;-42
2021/04/14 22:50:53;;;;;;;8.82;3.90;;;1.90;99.90;;;;;;12363715;28;20107;-43
2021/04/14 22:56:55;;;;;;;7.78;4.07;;;1.90;99.90;;;;;;12363369;28;20359;-43
2021/04/14 23:02:56;;;;;;;5.97;3.47;;;2.00;99.90;;;;;;12361905;28;20092;-43
2021/04/14 23:08:58;;;;;;;7.28;3.55;;;1.80;99.90;;;;;;12362459;28;20061;-42
2021/04/14 23:14:59;;;;;;;7.20;4.03;;;1.70;99.90;;;;;;12368923;28;20055;-42
2021/04/14 23:21:01;;;;;;;7.97;4.07;;;1.60;99.90;;;;;;12361758;28;20049;-42
2021/04/14 23:27:02;;;;;;;7.00;4.00;;;1.50;99.90;;;;;;12360734;28;21128;-42
2021/04/14 23:33:06;;;;;;;9.20;4.80;;;1.40;99.90;;;;;;12358173;28;20046;-42
2021/04/14 23:39:07;;;;;;;8.98;5.07;;;1.50;99.90;;;;;;12358477;28;20153;-42
2021/04/14 23:45:11;;;;;;;9.02;4.78;;;1.60;99.90;;;;;;12362867;28;20056;-42
2021/04/14 23:51:12;;;;;;;11.45;4.68;;;1.60;99.90;;;;;;12359262;28;20552;-42
2021/04/14 23:57:13;;;;;;;7.10;4.13;;;1.60;99.90;;;;;;12363979;28;20099;-42
